createdAt,value
2019-03-09T00:00:07.467Z,1004.92
2019-03-09T00:01:07.471Z,1004.90
2019-03-09T00:02:07.408Z,1004.86
2019-03-09T00:03:07.422Z,1004.86
2019-03-09T00:04:07.387Z,1004.84
2019-03-09T00:05:07.435Z,1004.86
2019-03-09T00:06:07.390Z,1004.83
2019-03-09T00:07:07.357Z,1004.81
2019-03-09T00:08:07.343Z,1004.80
2019-03-09T00:09:07.344Z,1004.76
2019-03-09T00:10:07.342Z,1004.74
2019-03-09T00:11:07.319Z,1004.66
2019-03-09T00:12:07.337Z,1004.61
2019-03-09T00:13:07.285Z,1004.57
2019-03-09T00:14:07.272Z,1004.62
2019-03-09T00:15:07.335Z,1004.53
2019-03-09T00:16:07.266Z,1004.53
2019-03-09T00:17:07.235Z,1004.47
2019-03-09T00:18:07.243Z,1004.48
2019-03-09T00:19:07.228Z,1004.46
2019-03-09T00:20:07.211Z,1004.41
2019-03-09T00:21:07.198Z,1004.40
2019-03-09T00:22:07.190Z,1004.35
2019-03-09T00:23:07.194Z,1004.42
2019-03-09T00:24:07.156Z,1004.37
2019-03-09T00:25:07.207Z,1004.32
2019-03-09T00:26:07.297Z,1004.40
2019-03-09T00:27:07.125Z,1004.38
2019-03-09T00:28:07.109Z,1004.41
2019-03-09T00:29:07.149Z,1004.36
2019-03-09T00:30:07.098Z,1004.35
2019-03-09T00:31:07.083Z,1004.33
2019-03-09T00:32:07.073Z,1004.28
2019-03-09T00:33:07.063Z,1004.30
2019-03-09T00:34:07.078Z,1004.26
2019-03-09T00:35:07.064Z,1004.30
2019-03-09T00:36:07.028Z,1004.31
2019-03-09T00:37:07.009Z,1004.29
2019-03-09T00:38:06.997Z,1004.34
2019-03-09T00:39:07.005Z,1004.24
2019-03-09T00:40:07.009Z,1004.31
2019-03-09T00:41:07.003Z,1004.28
2019-03-09T00:42:06.965Z,1004.27
2019-03-09T00:43:06.956Z,1004.25
2019-03-09T00:44:06.935Z,1004.30
2019-03-09T00:45:06.927Z,1004.21
2019-03-09T00:46:06.984Z,1004.19
2019-03-09T00:47:06.926Z,1004.17
2019-03-09T00:48:07.003Z,1004.16
2019-03-09T00:49:06.873Z,1004.14
2019-03-09T00:50:06.867Z,1004.14
2019-03-09T00:51:06.872Z,1004.15
2019-03-09T00:52:06.875Z,1004.13
2019-03-09T00:53:06.839Z,1004.05
2019-03-09T00:54:06.817Z,1004.07
2019-03-09T00:55:06.824Z,1004.02
2019-03-09T00:56:06.920Z,1004.01
2019-03-09T00:57:06.817Z,1004.05
2019-03-09T00:58:06.781Z,1003.99
2019-03-09T00:59:06.765Z,1003.94
2019-03-09T01:00:06.756Z,1003.92
2019-03-09T01:01:06.809Z,1003.87
2019-03-09T01:02:06.740Z,1003.87
2019-03-09T01:03:06.716Z,1003.80
2019-03-09T01:04:06.721Z,1003.87
2019-03-09T01:05:06.696Z,1003.77
2019-03-09T01:06:06.697Z,1003.80
2019-03-09T01:07:06.677Z,1003.82
2019-03-09T01:08:06.656Z,1003.79
2019-03-09T01:09:06.650Z,1003.77
2019-03-09T01:10:06.680Z,1003.79
2019-03-09T01:11:06.659Z,1003.76
2019-03-09T01:12:06.749Z,1003.74
2019-03-09T01:13:06.618Z,1003.74
2019-03-09T01:14:06.639Z,1003.67
2019-03-09T01:15:06.599Z,1003.68
2019-03-09T01:16:06.620Z,1003.62
2019-03-09T01:17:06.556Z,1003.63
2019-03-09T01:18:06.555Z,1003.62
2019-03-09T01:19:06.540Z,1003.66
2019-03-09T01:20:06.524Z,1003.65
2019-03-09T01:21:06.547Z,1003.67
2019-03-09T01:22:06.512Z,1003.66
2019-03-09T01:23:06.523Z,1003.59
2019-03-09T01:24:06.483Z,1003.58
2019-03-09T01:25:06.495Z,1003.50
2019-03-09T01:26:06.622Z,1003.47
2019-03-09T01:27:06.465Z,1003.51
2019-03-09T01:28:06.438Z,1003.45
2019-03-09T01:29:06.434Z,1003.42
2019-03-09T01:30:06.433Z,1003.34
2019-03-09T01:31:06.432Z,1003.36
2019-03-09T01:32:06.400Z,1003.40
2019-03-09T01:33:06.425Z,1003.36
2019-03-09T01:34:06.412Z,1003.29
2019-03-09T01:35:06.386Z,1003.32
2019-03-09T01:36:06.359Z,1003.37
2019-03-09T01:37:06.345Z,1003.26
2019-03-09T01:38:06.394Z,1003.30
2019-03-09T01:39:06.342Z,1003.31
2019-03-09T01:40:06.337Z,1003.29
2019-03-09T01:41:06.301Z,1003.20
2019-03-09T01:42:06.296Z,1003.17
2019-03-09T01:43:06.327Z,1003.13
2019-03-09T01:44:06.250Z,1003.12
2019-03-09T01:45:06.276Z,1003.10
2019-03-09T01:46:06.313Z,1003.02
2019-03-09T01:47:06.217Z,1002.96
2019-03-09T01:48:06.211Z,1003.03
2019-03-09T01:49:06.236Z,1003.05
2019-03-09T01:50:06.209Z,1003.01
2019-03-09T01:51:06.332Z,1002.95
2019-03-09T01:52:06.268Z,1002.99
2019-03-09T01:53:06.201Z,1002.97
2019-03-09T01:54:06.147Z,1002.97
2019-03-09T01:55:06.154Z,1003.03
2019-03-09T01:56:06.158Z,1002.98
2019-03-09T01:57:06.124Z,1003.02
2019-03-09T01:58:06.097Z,1003.00
2019-03-09T01:59:06.093Z,1002.97
2019-03-09T02:00:06.123Z,1003.04
2019-03-09T02:01:06.092Z,1002.96
2019-03-09T02:02:06.074Z,1002.95
2019-03-09T02:03:06.034Z,1002.92
2019-03-09T02:04:06.081Z,1002.95
2019-03-09T02:05:06.027Z,1002.91
2019-03-09T02:06:06.010Z,1002.87
2019-03-09T02:07:06.011Z,1002.98
2019-03-09T02:08:05.977Z,1002.95
2019-03-09T02:09:05.969Z,1002.89
2019-03-09T02:10:05.995Z,1002.95
2019-03-09T02:11:05.962Z,1002.94
2019-03-09T02:12:06.008Z,1002.97
2019-03-09T02:13:05.922Z,1002.79
2019-03-09T02:14:05.912Z,1002.87
2019-03-09T02:15:05.952Z,1002.84
2019-03-09T02:16:05.901Z,1002.79
2019-03-09T02:17:05.949Z,1002.80
2019-03-09T02:18:05.878Z,1002.68
2019-03-09T02:19:05.915Z,1002.76
2019-03-09T02:20:05.851Z,1002.77
2019-03-09T02:21:05.864Z,1002.74
2019-03-09T02:22:05.852Z,1002.79
2019-03-09T02:23:05.856Z,1002.86
2019-03-09T02:24:05.822Z,1002.74
2019-03-09T02:25:05.807Z,1002.78
2019-03-09T02:26:05.835Z,1002.76
2019-03-09T02:27:05.790Z,1002.73
2019-03-09T02:28:05.769Z,1002.71
2019-03-09T02:29:05.776Z,1002.71
2019-03-09T02:30:05.793Z,1002.79
2019-03-09T02:31:05.926Z,1002.74
2019-03-09T02:32:05.731Z,1002.72
2019-03-09T02:33:05.725Z,1002.74
2019-03-09T02:34:05.716Z,1002.78
2019-03-09T02:35:05.720Z,1002.73
2019-03-09T02:36:05.808Z,1002.72
2019-03-09T02:37:05.835Z,1002.64
2019-03-09T02:38:05.692Z,1002.65
2019-03-09T02:39:05.640Z,1002.65
2019-03-09T02:40:05.650Z,1002.66
2019-03-09T02:41:05.612Z,1002.67
2019-03-09T02:42:05.616Z,1002.67
2019-03-09T02:43:05.886Z,1002.73
2019-03-09T02:44:05.572Z,1002.66
2019-03-09T02:45:05.586Z,1002.67
2019-03-09T02:46:05.550Z,1002.63
2019-03-09T02:47:05.555Z,1002.68
2019-03-09T02:48:05.577Z,1002.63
2019-03-09T02:49:05.515Z,1002.57
2019-03-09T02:50:05.525Z,1002.65
2019-03-09T02:51:05.493Z,1002.66
2019-03-09T02:52:05.535Z,1002.60
2019-03-09T02:53:05.471Z,1002.64
2019-03-09T02:54:05.471Z,1002.68
2019-03-09T02:55:05.458Z,1002.67
2019-03-09T02:56:05.459Z,1002.65
2019-03-09T02:57:05.451Z,1002.66
2019-03-09T02:58:05.476Z,1002.65
2019-03-09T02:59:05.414Z,1002.67
2019-03-09T03:00:05.392Z,1002.67
2019-03-09T03:01:05.390Z,1002.58
2019-03-09T03:02:05.412Z,1002.54
2019-03-09T03:03:05.370Z,1002.57
2019-03-09T03:04:05.401Z,1002.57
2019-03-09T03:05:05.434Z,1002.47
2019-03-09T03:06:05.338Z,1002.47
2019-03-09T03:07:05.321Z,1002.51
2019-03-09T03:08:05.327Z,1002.52
2019-03-09T03:09:05.321Z,1002.53
2019-03-09T03:10:05.310Z,1002.58
2019-03-09T03:11:05.289Z,1002.55
2019-03-09T03:12:05.268Z,1002.58
2019-03-09T03:13:05.260Z,1002.66
2019-03-09T03:14:05.245Z,1002.65
2019-03-09T03:15:05.253Z,1002.68
2019-03-09T03:16:05.220Z,1002.65
2019-03-09T03:17:05.240Z,1002.62
2019-03-09T03:18:05.219Z,1002.64
2019-03-09T03:19:05.215Z,1002.65
2019-03-09T03:20:05.217Z,1002.63
2019-03-09T03:21:05.214Z,1002.62
2019-03-09T03:22:05.144Z,1002.61
2019-03-09T03:23:05.163Z,1002.65
2019-03-09T03:24:05.131Z,1002.55
2019-03-09T03:25:05.140Z,1002.57
2019-03-09T03:26:05.232Z,1002.56
2019-03-09T03:27:05.105Z,1002.59
2019-03-09T03:28:05.124Z,1002.62
2019-03-09T03:29:05.062Z,1002.62
2019-03-09T03:30:05.159Z,1002.65
2019-03-09T03:31:05.056Z,1002.72
2019-03-09T03:32:05.062Z,1002.72
2019-03-09T03:33:05.030Z,1002.73
2019-03-09T03:34:05.158Z,1002.75
2019-03-09T03:35:05.012Z,1002.75
2019-03-09T03:36:05.021Z,1002.77
2019-03-09T03:37:04.990Z,1002.76
2019-03-09T03:38:04.999Z,1002.78
2019-03-09T03:39:04.973Z,1002.78
2019-03-09T03:40:04.967Z,1002.78
2019-03-09T03:41:04.945Z,1002.84
2019-03-09T03:42:04.977Z,1002.88
2019-03-09T03:43:04.916Z,1002.84
2019-03-09T03:44:04.925Z,1002.87
2019-03-09T03:45:04.969Z,1002.80
2019-03-09T03:46:04.871Z,1002.88
2019-03-09T03:47:04.864Z,1002.84
2019-03-09T03:48:04.918Z,1002.82
2019-03-09T03:49:04.848Z,1002.83
2019-03-09T03:50:04.849Z,1002.89
2019-03-09T03:51:04.817Z,1002.87
2019-03-09T03:52:04.815Z,1002.81
2019-03-09T03:53:04.797Z,1002.86
2019-03-09T03:54:04.803Z,1002.72
2019-03-09T03:55:04.772Z,1002.74
2019-03-09T03:56:04.916Z,1002.81
2019-03-09T03:57:04.791Z,1002.83
2019-03-09T03:58:04.735Z,1002.83
2019-03-09T03:59:04.748Z,1002.80
2019-03-09T04:00:04.772Z,1002.79
2019-03-09T04:01:04.733Z,1002.74
2019-03-09T04:02:04.697Z,1002.88
2019-03-09T04:03:04.845Z,1002.84
2019-03-09T04:04:04.694Z,1002.86
2019-03-09T04:05:04.673Z,1002.84
2019-03-09T04:06:04.658Z,1002.85
2019-03-09T04:07:04.643Z,1002.91
2019-03-09T04:08:04.655Z,1002.99
2019-03-09T04:09:04.644Z,1002.91
2019-03-09T04:10:04.603Z,1002.94
2019-03-09T04:11:06.016Z,1002.93
2019-03-09T04:12:04.605Z,1002.89
2019-03-09T04:13:04.583Z,1002.88
2019-03-09T04:14:04.617Z,1002.98
2019-03-09T04:15:04.566Z,1002.98
2019-03-09T04:16:04.538Z,1002.94
2019-03-09T04:17:04.569Z,1002.94
2019-03-09T04:18:04.509Z,1003.05
2019-03-09T04:19:04.562Z,1003.02
2019-03-09T04:20:04.499Z,1002.97
2019-03-09T04:21:04.477Z,1003.05
2019-03-09T04:22:04.491Z,1003.01
2019-03-09T04:23:04.466Z,1003.03
2019-03-09T04:24:04.448Z,1003.10
2019-03-09T04:25:04.457Z,1003.14
2019-03-09T04:26:04.480Z,1003.06
2019-03-09T04:27:04.406Z,1003.02
2019-03-09T04:28:04.432Z,1003.05
2019-03-09T04:29:04.402Z,1002.99
2019-03-09T04:30:04.424Z,1002.99
2019-03-09T04:31:04.364Z,1003.04
2019-03-09T04:32:04.351Z,1003.06
2019-03-09T04:33:04.350Z,1003.04
2019-03-09T04:34:04.340Z,1003.10
2019-03-09T04:35:04.386Z,1003.16
2019-03-09T04:36:04.314Z,1003.21
2019-03-09T04:37:04.294Z,1003.15
2019-03-09T04:38:04.311Z,1003.18
2019-03-09T04:39:04.309Z,1003.26
2019-03-09T04:40:04.270Z,1003.38
2019-03-09T04:41:04.253Z,1003.41
2019-03-09T04:42:04.236Z,1003.39
2019-03-09T04:43:04.250Z,1003.39
2019-03-09T04:44:04.213Z,1003.43
2019-03-09T04:45:04.286Z,1003.45
2019-03-09T04:46:04.194Z,1003.51
2019-03-09T04:47:04.342Z,1003.51
2019-03-09T04:48:04.183Z,1003.45
2019-03-09T04:49:04.182Z,1003.51
2019-03-09T04:50:04.170Z,1003.52
2019-03-09T04:51:04.135Z,1003.53
2019-03-09T04:52:04.126Z,1003.39
2019-03-09T04:53:04.132Z,1003.46
2019-03-09T04:54:04.105Z,1003.48
2019-03-09T04:55:04.109Z,1003.51
2019-03-09T04:56:04.118Z,1003.53
2019-03-09T04:57:04.124Z,1003.53
2019-03-09T04:58:04.057Z,1003.60
2019-03-09T04:59:04.046Z,1003.47
2019-03-09T05:00:04.044Z,1003.51
2019-03-09T05:01:04.032Z,1003.54
2019-03-09T05:02:04.019Z,1003.51
2019-03-09T05:03:03.999Z,1003.49
2019-03-09T05:04:04.002Z,1003.48
2019-03-09T05:05:03.993Z,1003.50
2019-03-09T05:06:03.969Z,1003.52
2019-03-09T05:07:04.021Z,1003.60
2019-03-09T05:08:03.949Z,1003.70
2019-03-09T05:09:03.937Z,1003.68
2019-03-09T05:10:03.939Z,1003.71
2019-03-09T05:11:03.936Z,1003.80
2019-03-09T05:12:03.927Z,1003.85
2019-03-09T05:13:03.966Z,1003.79
2019-03-09T05:14:03.879Z,1003.78
2019-03-09T05:15:03.890Z,1003.83
2019-03-09T05:16:03.873Z,1003.88
2019-03-09T05:17:03.848Z,1003.86
2019-03-09T05:18:03.871Z,1003.83
2019-03-09T05:19:03.857Z,1003.91
2019-03-09T05:20:03.834Z,1003.91
2019-03-09T05:21:03.798Z,1003.84
2019-03-09T05:22:03.849Z,1003.79
2019-03-09T05:23:03.806Z,1003.81
2019-03-09T05:24:03.774Z,1003.77
2019-03-09T05:25:03.795Z,1003.79
2019-03-09T05:26:03.778Z,1003.79
2019-03-09T05:27:03.827Z,1003.72
2019-03-09T05:28:03.739Z,1003.76
2019-03-09T05:29:03.724Z,1003.58
2019-03-09T05:30:03.723Z,1003.64
2019-03-09T05:31:03.739Z,1003.54
2019-03-09T05:32:04.624Z,1003.53
2019-03-09T05:33:03.659Z,1003.52
2019-03-09T05:34:03.669Z,1003.58
2019-03-09T05:35:03.676Z,1003.71
2019-03-09T05:36:03.640Z,1003.83
2019-03-09T05:37:03.617Z,1003.87
2019-03-09T05:38:03.620Z,1003.88
2019-03-09T05:39:03.599Z,1003.93
2019-03-09T05:40:03.581Z,1003.98
2019-03-09T05:41:03.585Z,1004.00
2019-03-09T05:42:03.563Z,1004.06
2019-03-09T05:43:03.579Z,1004.08
2019-03-09T05:44:03.539Z,1004.08
2019-03-09T05:45:03.528Z,1004.17
2019-03-09T05:46:03.520Z,1004.15
2019-03-09T05:47:03.516Z,1004.14
2019-03-09T05:48:03.495Z,1004.18
2019-03-09T05:49:03.494Z,1004.29
2019-03-09T05:50:04.684Z,1004.29
2019-03-09T05:51:03.464Z,1004.27
2019-03-09T05:52:03.477Z,1004.30
2019-03-09T05:53:03.451Z,1004.28
2019-03-09T05:54:03.606Z,1004.30
2019-03-09T05:55:03.436Z,1004.30
2019-03-09T05:56:03.557Z,1004.27
2019-03-09T05:57:03.404Z,1004.31
2019-03-09T05:58:03.430Z,1004.29
2019-03-09T05:59:03.443Z,1004.30
2019-03-09T06:00:03.376Z,1004.33
2019-03-09T06:01:03.389Z,1004.29
2019-03-09T06:02:03.351Z,1004.27
2019-03-09T06:03:03.323Z,1004.23
2019-03-09T06:04:03.332Z,1004.31
2019-03-09T06:05:03.362Z,1004.23
2019-03-09T06:06:03.402Z,1004.17
2019-03-09T06:07:03.288Z,1004.21
2019-03-09T06:08:03.270Z,1004.15
2019-03-09T06:09:03.263Z,1004.15
2019-03-09T06:10:03.248Z,1004.16
2019-03-09T06:11:03.290Z,1004.11
2019-03-09T06:12:03.280Z,1004.07
2019-03-09T06:13:03.226Z,1004.04
2019-03-09T06:14:03.215Z,1004.02
2019-03-09T06:15:03.201Z,1003.96
2019-03-09T06:16:03.177Z,1003.99
2019-03-09T06:17:03.175Z,1003.96
2019-03-09T06:18:03.187Z,1003.93
2019-03-09T06:19:03.143Z,1003.92
2019-03-09T06:20:03.140Z,1003.98
2019-03-09T06:21:03.126Z,1003.97
2019-03-09T06:22:03.126Z,1004.00
2019-03-09T06:23:03.123Z,1004.06
2019-03-09T06:24:03.100Z,1003.98
2019-03-09T06:25:03.139Z,1003.97
2019-03-09T06:26:03.242Z,1004.03
2019-03-09T06:27:03.093Z,1004.07
2019-03-09T06:28:03.045Z,1004.08
2019-03-09T06:29:03.074Z,1004.12
2019-03-09T06:30:03.050Z,1004.13
2019-03-09T06:31:03.111Z,1004.18
2019-03-09T06:32:03.006Z,1004.21
2019-03-09T06:33:02.988Z,1004.24
2019-03-09T06:34:02.994Z,1004.30
2019-03-09T06:35:02.959Z,1004.30
2019-03-09T06:36:02.950Z,1004.36
2019-03-09T06:37:02.993Z,1004.37
2019-03-09T06:38:02.976Z,1004.38
2019-03-09T06:39:02.925Z,1004.45
2019-03-09T06:40:02.911Z,1004.50
2019-03-09T06:41:03.389Z,1004.52
2019-03-09T06:42:02.900Z,1004.56
2019-03-09T06:43:02.911Z,1004.58
2019-03-09T06:44:02.869Z,1004.66
2019-03-09T06:45:02.857Z,1004.75
2019-03-09T06:46:02.842Z,1004.74
2019-03-09T06:47:02.840Z,1004.80
2019-03-09T06:48:02.853Z,1004.77
2019-03-09T06:49:02.807Z,1004.80
2019-03-09T06:50:02.811Z,1004.82
2019-03-09T06:51:02.782Z,1004.80
2019-03-09T06:52:02.811Z,1004.87
2019-03-09T06:53:02.994Z,1004.88
2019-03-09T06:54:02.758Z,1004.89
2019-03-09T06:55:02.798Z,1004.90
2019-03-09T06:56:02.967Z,1004.94
2019-03-09T06:57:02.759Z,1004.95
2019-03-09T06:58:02.747Z,1004.91
2019-03-09T06:59:02.738Z,1004.95
2019-03-09T07:00:02.697Z,1004.89
2019-03-09T07:01:02.723Z,1005.01
2019-03-09T07:02:02.682Z,1004.97
2019-03-09T07:03:02.678Z,1005.02
2019-03-09T07:04:02.640Z,1005.08
2019-03-09T07:05:02.650Z,1005.11
2019-03-09T07:06:02.611Z,1005.14
2019-03-09T07:07:02.614Z,1005.13
2019-03-09T07:08:02.606Z,1005.14
2019-03-09T07:09:02.579Z,1005.17
2019-03-09T07:10:02.575Z,1005.26
2019-03-09T07:11:02.565Z,1005.27
2019-03-09T07:12:02.600Z,1005.33
2019-03-09T07:13:02.569Z,1005.37
2019-03-09T07:14:02.524Z,1005.44
2019-03-09T07:15:02.513Z,1005.38
2019-03-09T07:16:02.498Z,1005.40
2019-03-09T07:17:02.553Z,1005.48
2019-03-09T07:18:02.481Z,1005.35
2019-03-09T07:19:02.476Z,1005.46
2019-03-09T07:20:11.965Z,1005.44
2019-03-09T07:21:03.448Z,1005.41
2019-03-09T07:22:02.521Z,1005.43
2019-03-09T07:23:02.425Z,1005.32
2019-03-09T07:24:02.484Z,1005.32
2019-03-09T07:25:02.405Z,1005.33
2019-03-09T07:26:02.428Z,1005.30
2019-03-09T07:27:02.387Z,1005.33
2019-03-09T07:28:02.393Z,1005.35
2019-03-09T07:29:02.382Z,1005.31
2019-03-09T07:30:02.343Z,1005.25
2019-03-09T07:31:02.327Z,1005.30
2019-03-09T07:32:02.317Z,1005.29
2019-03-09T07:33:02.318Z,1005.31
2019-03-09T07:34:02.319Z,1005.31
2019-03-09T07:35:02.334Z,1005.38
2019-03-09T07:36:02.315Z,1005.42
2019-03-09T07:37:02.338Z,1005.51
2019-03-09T07:38:02.258Z,1005.46
2019-03-09T07:39:02.266Z,1005.58
2019-03-09T07:40:02.235Z,1005.63
2019-03-09T07:41:02.252Z,1005.68
2019-03-09T07:42:02.273Z,1005.68
2019-03-09T07:43:04.208Z,1005.68
2019-03-09T07:44:02.291Z,1005.66
2019-03-09T07:45:02.176Z,1005.64
2019-03-09T07:46:02.166Z,1005.65
2019-03-09T07:47:02.170Z,1005.63
2019-03-09T07:48:02.196Z,1005.65
2019-03-09T07:49:02.133Z,1005.67
2019-03-09T07:50:02.128Z,1005.61
2019-03-09T07:51:02.122Z,1005.66
2019-03-09T07:52:02.126Z,1005.62
2019-03-09T07:53:02.088Z,1005.57
2019-03-09T07:54:02.117Z,1005.61
2019-03-09T07:55:02.066Z,1005.58
2019-03-09T07:56:02.099Z,1005.58
2019-03-09T07:57:02.042Z,1005.54
2019-03-09T07:58:02.042Z,1005.55
2019-03-09T07:59:02.016Z,1005.55
2019-03-09T08:00:02.001Z,1005.58
2019-03-09T08:01:02.011Z,1005.58
2019-03-09T08:02:01.979Z,1005.60
2019-03-09T08:03:02.107Z,1005.65
2019-03-09T08:04:01.972Z,1005.65
2019-03-09T08:05:01.949Z,1005.66
2019-03-09T08:06:01.938Z,1005.69
2019-03-09T08:07:01.933Z,1005.74
2019-03-09T08:08:01.923Z,1005.74
2019-03-09T08:09:01.961Z,1005.78
2019-03-09T08:10:01.920Z,1005.74
2019-03-09T08:11:01.901Z,1005.82
2019-03-09T08:12:01.869Z,1005.82
2019-03-09T08:13:01.863Z,1005.88
2019-03-09T08:14:01.890Z,1005.91
2019-03-09T08:15:01.922Z,1005.94
2019-03-09T08:16:01.844Z,1005.97
2019-03-09T08:17:01.869Z,1005.99
2019-03-09T08:18:01.804Z,1005.97
2019-03-09T08:19:01.881Z,1005.96
2019-03-09T08:20:01.820Z,1005.96
2019-03-09T08:21:01.839Z,1005.95
2019-03-09T08:22:01.782Z,1005.97
2019-03-09T08:23:01.750Z,1006.03
2019-03-09T08:24:01.757Z,1005.98
2019-03-09T08:25:01.731Z,1006.00
2019-03-09T08:26:01.815Z,1006.09
2019-03-09T08:27:01.735Z,1005.97
2019-03-09T08:28:01.788Z,1005.99
2019-03-09T08:29:01.786Z,1006.13
2019-03-09T08:30:02.454Z,1006.11
2019-03-09T08:31:01.797Z,1006.05
2019-03-09T08:32:01.658Z,1006.12
2019-03-09T08:33:01.671Z,1006.25
2019-03-09T08:34:01.626Z,1006.20
2019-03-09T08:35:01.629Z,1006.16
2019-03-09T08:36:01.638Z,1006.12
2019-03-09T08:37:01.601Z,1006.05
2019-03-09T08:38:01.602Z,1006.01
2019-03-09T08:39:01.576Z,1006.07
2019-03-09T08:40:01.558Z,1006.00
2019-03-09T08:41:01.569Z,1005.98
2019-03-09T08:42:01.538Z,1005.88
2019-03-09T08:43:01.531Z,1005.91
2019-03-09T08:44:01.552Z,1005.82
2019-03-09T08:45:01.546Z,1005.87
2019-03-09T08:46:01.495Z,1005.82
2019-03-09T08:47:01.510Z,1005.83
2019-03-09T08:48:01.497Z,1005.85
2019-03-09T08:49:01.494Z,1005.85
2019-03-09T08:50:01.487Z,1005.78
2019-03-09T08:51:01.434Z,1005.75
2019-03-09T08:52:01.469Z,1005.77
2019-03-09T08:53:01.402Z,1005.82
2019-03-09T08:54:01.428Z,1005.85
2019-03-09T08:55:01.382Z,1005.82
2019-03-09T08:56:01.454Z,1005.83
2019-03-09T08:57:01.422Z,1005.74
2019-03-09T08:58:01.403Z,1005.78
2019-03-09T08:59:01.355Z,1005.64
2019-03-09T09:00:01.322Z,1005.66
2019-03-09T09:01:01.314Z,1005.75
2019-03-09T09:02:01.314Z,1005.88
2019-03-09T09:03:01.296Z,1005.91
2019-03-09T09:04:01.299Z,1005.94
2019-03-09T09:05:01.287Z,1005.87
2019-03-09T09:06:01.270Z,1005.92
2019-03-09T09:07:01.361Z,1005.91
2019-03-09T09:08:03.608Z,1006.04
2019-03-09T09:09:01.273Z,1006.05
2019-03-09T09:10:01.213Z,1006.07
2019-03-09T09:11:01.203Z,1006.09
2019-03-09T09:12:01.244Z,1006.13
2019-03-09T09:13:01.172Z,1006.15
2019-03-09T09:14:01.198Z,1006.05
2019-03-09T09:15:01.163Z,1006.02
2019-03-09T09:16:01.153Z,1006.13
2019-03-09T09:17:01.159Z,1006.12
2019-03-09T09:18:01.133Z,1006.08
2019-03-09T09:19:01.154Z,1006.11
2019-03-09T09:20:01.117Z,1006.08
2019-03-09T09:21:01.124Z,1006.01
2019-03-09T09:22:01.077Z,1006.03
2019-03-09T09:23:01.062Z,1005.96
2019-03-09T09:24:01.069Z,1005.99
2019-03-09T09:25:01.054Z,1005.93
2019-03-09T09:26:01.035Z,1005.91
2019-03-09T09:27:01.120Z,1005.92
2019-03-09T09:28:01.026Z,1005.89
2019-03-09T09:29:01.076Z,1005.87
2019-03-09T09:30:01.036Z,1005.88
2019-03-09T09:31:00.976Z,1005.82
2019-03-09T09:32:00.985Z,1005.83
2019-03-09T09:33:00.958Z,1005.84
2019-03-09T09:34:00.960Z,1005.92
2019-03-09T09:35:00.932Z,1005.93
2019-03-09T09:36:00.973Z,1005.91
2019-03-09T09:37:00.905Z,1005.94
2019-03-09T09:38:00.896Z,1005.93
2019-03-09T09:39:00.921Z,1005.99
2019-03-09T09:40:00.872Z,1005.96
2019-03-09T09:41:00.862Z,1005.92
2019-03-09T09:42:00.860Z,1005.83
2019-03-09T09:43:00.840Z,1005.77
2019-03-09T09:44:00.836Z,1005.74
2019-03-09T09:45:00.854Z,1005.73
2019-03-09T09:46:00.809Z,1005.69
2019-03-09T09:47:00.788Z,1005.71
2019-03-09T09:48:00.785Z,1005.58
2019-03-09T09:49:00.990Z,1005.57
2019-03-09T09:50:00.766Z,1005.60
2019-03-09T09:51:00.750Z,1005.53
2019-03-09T09:52:00.761Z,1005.45
2019-03-09T09:53:00.726Z,1005.50
2019-03-09T09:54:00.775Z,1005.52
2019-03-09T09:55:00.731Z,1005.43
2019-03-09T09:56:00.734Z,1005.46
2019-03-09T09:57:00.692Z,1005.41
2019-03-09T09:58:00.685Z,1005.27
2019-03-09T09:59:00.654Z,1005.24
2019-03-09T10:00:00.661Z,1005.30
2019-03-09T10:01:00.635Z,1005.39
2019-03-09T10:02:00.630Z,1005.59
2019-03-09T10:03:00.649Z,1005.62
2019-03-09T10:04:00.611Z,1005.65
2019-03-09T10:05:00.615Z,1005.63
2019-03-09T10:06:00.578Z,1005.64
2019-03-09T10:07:00.583Z,1005.59
2019-03-09T10:08:00.549Z,1005.57
2019-03-09T10:09:00.542Z,1005.60
2019-03-09T10:10:00.546Z,1005.44
2019-03-09T10:11:00.519Z,1005.35
2019-03-09T10:12:00.506Z,1005.35
2019-03-09T10:13:00.511Z,1005.27
2019-03-09T10:14:00.519Z,1005.30
2019-03-09T10:15:00.517Z,1005.26
2019-03-09T10:16:00.465Z,1005.08
2019-03-09T10:17:00.484Z,1005.07
2019-03-09T10:18:00.471Z,1005.13
2019-03-09T10:19:00.436Z,1005.13
2019-03-09T10:20:00.426Z,1005.08
2019-03-09T10:21:00.413Z,1005.10
2019-03-09T10:22:00.409Z,1005.05
2019-03-09T10:23:04.805Z,1005.02
2019-03-09T10:24:00.475Z,1005.13
2019-03-09T10:25:00.444Z,1005.16
2019-03-09T10:26:11.150Z,1005.33
2019-03-09T10:27:00.360Z,1005.44
2019-03-09T10:28:00.334Z,1005.54
2019-03-09T10:29:00.359Z,1005.61
2019-03-09T10:30:00.442Z,1005.60
2019-03-09T10:31:00.304Z,1005.62
2019-03-09T10:32:00.290Z,1005.59
2019-03-09T10:33:00.278Z,1005.65
2019-03-09T10:34:00.313Z,1005.73
2019-03-09T10:35:00.342Z,1005.71
2019-03-09T10:36:00.267Z,1005.75
2019-03-09T10:37:00.263Z,1005.64
2019-03-09T10:38:00.252Z,1005.70
2019-03-09T10:39:00.283Z,1005.70
2019-03-09T10:40:00.322Z,1005.67
2019-03-09T10:41:00.204Z,1005.67
2019-03-09T10:42:00.174Z,1005.67
2019-03-09T10:43:00.167Z,1005.59
2019-03-09T10:44:00.200Z,1005.64
2019-03-09T10:45:00.235Z,1005.63
2019-03-09T10:46:00.139Z,1005.61
2019-03-09T10:47:00.122Z,1005.63
2019-03-09T10:48:00.104Z,1005.65
2019-03-09T10:49:00.154Z,1005.63
2019-03-09T10:50:00.113Z,1005.59
2019-03-09T10:51:00.137Z,1005.60
2019-03-09T10:52:00.071Z,1005.59
2019-03-09T10:53:00.043Z,1005.57
2019-03-09T10:54:00.046Z,1005.52
2019-03-09T10:55:00.161Z,1005.52
2019-03-09T10:56:00.162Z,1005.50
2019-03-09T10:57:00.001Z,1005.44
2019-03-09T10:58:00.014Z,1005.49
2019-03-09T10:59:00.001Z,1005.45
2019-03-09T11:00:00.025Z,1005.44
2019-03-09T11:00:59.980Z,1005.41
2019-03-09T11:01:59.980Z,1005.41
2019-03-09T11:02:59.935Z,1005.38
2019-03-09T11:03:59.923Z,1005.33
2019-03-09T11:04:59.908Z,1005.39
2019-03-09T11:05:59.983Z,1005.39
2019-03-09T11:06:59.936Z,1005.42
2019-03-09T11:08:00.012Z,1005.43
2019-03-09T11:08:59.921Z,1005.39
2019-03-09T11:09:59.859Z,1005.37
2019-03-09T11:10:59.923Z,1005.33
2019-03-09T11:11:59.829Z,1005.28
2019-03-09T11:12:59.861Z,1005.27
2019-03-09T11:13:59.825Z,1005.34
2019-03-09T11:14:59.815Z,1005.36
2019-03-09T11:15:59.845Z,1005.26
2019-03-09T11:16:59.791Z,1005.26
2019-03-09T11:17:59.801Z,1005.22
2019-03-09T11:18:59.759Z,1005.24
2019-03-09T11:19:59.753Z,1005.25
2019-03-09T11:21:00.028Z,1005.17
2019-03-09T11:21:59.715Z,1005.19
2019-03-09T11:22:59.709Z,1005.25
2019-03-09T11:23:59.703Z,1005.16
2019-03-09T11:25:03.438Z,1005.14
2019-03-09T11:25:59.768Z,1005.13
2019-03-09T11:26:59.690Z,1005.08
2019-03-09T11:27:59.665Z,1005.05
2019-03-09T11:28:59.698Z,1005.08
2019-03-09T11:29:59.628Z,1005.09
2019-03-09T11:30:59.645Z,1005.14
2019-03-09T11:31:59.637Z,1005.22
2019-03-09T11:32:59.607Z,1005.21
2019-03-09T11:33:59.584Z,1005.18
2019-03-09T11:34:59.605Z,1005.10
2019-03-09T11:35:59.594Z,1005.04
2019-03-09T11:36:59.571Z,1005.13
2019-03-09T11:37:59.542Z,1005.18
2019-03-09T11:38:59.578Z,1005.26
2019-03-09T11:39:59.570Z,1005.24
2019-03-09T11:41:00.858Z,1005.23
2019-03-09T11:41:59.543Z,1005.26
2019-03-09T11:42:59.497Z,1005.27
2019-03-09T11:43:59.488Z,1005.11
2019-03-09T11:44:59.479Z,1005.16
2019-03-09T11:45:59.457Z,1005.18
2019-03-09T11:46:59.500Z,1005.09
2019-03-09T11:47:59.509Z,1005.08
2019-03-09T11:48:59.424Z,1005.00
2019-03-09T11:49:59.404Z,1004.94
2019-03-09T11:50:59.405Z,1004.82
2019-03-09T11:51:59.414Z,1004.79
2019-03-09T11:52:59.381Z,1004.68
2019-03-09T11:53:59.402Z,1004.53
2019-03-09T11:54:59.391Z,1004.57
2019-03-09T11:55:59.392Z,1004.48
2019-03-09T11:56:59.333Z,1004.36
2019-03-09T11:57:59.336Z,1004.36
2019-03-09T11:58:59.310Z,1004.27
2019-03-09T11:59:59.292Z,1004.37
2019-03-09T12:00:59.330Z,1004.35
2019-03-09T12:01:59.316Z,1004.22
2019-03-09T12:02:59.328Z,1004.21
2019-03-09T12:03:59.259Z,1004.17
2019-03-09T12:04:59.258Z,1004.06